sensor_id;sensor_type;location;lat;lon;timestamp;pressure;altitude;pressure_sealevel;temperature;humidity
48527;BME280;34317;51.660;5.824;2023-01-28T00:00:14;102843.63;;;7.15;54.58
48527;BME280;34317;51.660;5.824;2023-01-28T00:02:41;102841.88;;;7.14;54.76
48527;BME280;34317;51.660;5.824;2023-01-28T00:05:15;102845.38;;;7.10;54.62
48527;BME280;34317;51.660;5.824;2023-01-28T00:07:43;102848.00;;;7.07;54.61
48527;BME280;34317;51.660;5.824;2023-01-28T00:10:10;102845.34;;;7.04;54.67
48527;BME280;34317;51.660;5.824;2023-01-28T00:12:37;102838.34;;;7.03;54.42
48527;BME280;34317;51.660;5.824;2023-01-28T00:15:04;102847.13;;;7.05;54.36
48527;BME280;34317;51.660;5.824;2023-01-28T00:17:33;102850.63;;;7.07;54.22
48527;BME280;34317;51.660;5.824;2023-01-28T00:20:00;102848.88;;;7.08;54.70
48527;BME280;34317;51.660;5.824;2023-01-28T00:22:27;102851.50;;;7.08;54.47
48527;BME280;34317;51.660;5.824;2023-01-28T00:24:54;102847.09;;;7.08;54.08
48527;BME280;34317;51.660;5.824;2023-01-28T00:27:21;102852.41;;;7.05;54.27
48527;BME280;34317;51.660;5.824;2023-01-28T00:29:50;102852.38;;;7.02;54.32
48527;BME280;34317;51.660;5.824;2023-01-28T00:32:17;102846.22;;;7.00;54.01
48527;BME280;34317;51.660;5.824;2023-01-28T00:34:45;102848.84;;;6.98;53.94
48527;BME280;34317;51.660;5.824;2023-01-28T00:37:12;102850.63;;;6.98;53.95
48527;BME280;34317;51.660;5.824;2023-01-28T00:39:39;102859.41;;;6.97;53.92
48527;BME280;34317;51.660;5.824;2023-01-28T00:42:06;102861.13;;;6.95;53.70
48527;BME280;34317;51.660;5.824;2023-01-28T00:44:33;102862.88;;;6.93;54.22
48527;BME280;34317;51.660;5.824;2023-01-28T00:47:07;102873.44;;;6.93;53.99
48527;BME280;34317;51.660;5.824;2023-01-28T00:49:34;102868.16;;;6.93;54.09
48527;BME280;34317;51.660;5.824;2023-01-28T00:52:21;102869.91;;;6.91;53.80
48527;BME280;34317;51.660;5.824;2023-01-28T00:54:48;102868.16;;;6.90;54.14
48527;BME280;34317;51.660;5.824;2023-01-28T00:57:17;102880.44;;;6.91;53.64
48527;BME280;34317;51.660;5.824;2023-01-28T00:59:44;102883.09;;;6.88;53.85
48527;BME280;34317;51.660;5.824;2023-01-28T01:02:13;102878.69;;;6.87;53.49
48527;BME280;34317;51.660;5.824;2023-01-28T01:04:40;102875.16;;;6.85;53.68
48527;BME280;34317;51.660;5.824;2023-01-28T01:07:22;102871.66;;;6.82;53.38
48527;BME280;34317;51.660;5.824;2023-01-28T01:10:18;102865.50;;;6.80;53.84
48527;BME280;34317;51.660;5.824;2023-01-28T01:12:47;102864.63;;;6.78;53.45
48527;BME280;34317;51.660;5.824;2023-01-28T01:15:16;102869.88;;;6.75;53.29
48527;BME280;34317;51.660;5.824;2023-01-28T01:17:46;102861.09;;;6.73;53.30
48527;BME280;34317;51.660;5.824;2023-01-28T01:20:21;102867.22;;;6.72;53.37
48527;BME280;34317;51.660;5.824;2023-01-28T01:22:50;102862.84;;;6.71;53.65
48527;BME280;34317;51.660;5.824;2023-01-28T01:25:19;102873.38;;;6.71;53.32
48527;BME280;34317;51.660;5.824;2023-01-28T01:27:49;102862.84;;;6.71;53.30
48527;BME280;34317;51.660;5.824;2023-01-28T01:30:18;102861.97;;;6.71;53.32
48527;BME280;34317;51.660;5.824;2023-01-28T01:32:47;102861.94;;;6.72;53.10
48527;BME280;34317;51.660;5.824;2023-01-28T01:35:15;102863.69;;;6.72;53.11
48527;BME280;34317;51.660;5.824;2023-01-28T01:37:43;102857.56;;;6.71;53.07
48527;BME280;34317;51.660;5.824;2023-01-28T01:40:17;102861.09;;;6.73;53.23
48527;BME280;34317;51.660;5.824;2023-01-28T01:42:44;102864.59;;;6.75;53.42
48527;BME280;34317;51.660;5.824;2023-01-28T01:45:12;102871.63;;;6.76;53.39
48527;BME280;34317;51.660;5.824;2023-01-28T01:47:43;102872.50;;;6.75;53.17
48527;BME280;34317;51.660;5.824;2023-01-28T01:50:41;102868.13;;;6.74;53.10
48527;BME280;34317;51.660;5.824;2023-01-28T01:53:19;102871.63;;;6.73;53.33
48527;BME280;34317;51.660;5.824;2023-01-28T01:55:51;102875.09;;;6.72;53.10
48527;BME280;34317;51.660;5.824;2023-01-28T01:58:23;102876.88;;;6.73;53.25
48527;BME280;34317;51.660;5.824;2023-01-28T02:00:51;102881.28;;;6.74;53.11
48527;BME280;34317;51.660;5.824;2023-01-28T02:03:24;102876.00;;;6.73;53.17
48527;BME280;34317;51.660;5.824;2023-01-28T02:05:54;102875.09;;;6.72;53.19
48527;BME280;34317;51.660;5.824;2023-01-28T02:08:21;102869.84;;;6.72;52.92
48527;BME280;34317;51.660;5.824;2023-01-28T02:10:52;102867.22;;;6.69;53.06
48527;BME280;34317;51.660;5.824;2023-01-28T02:13:24;102870.72;;;6.68;53.12
48527;BME280;34317;51.660;5.824;2023-01-28T02:15:54;102873.34;;;6.68;53.30
48527;BME280;34317;51.660;5.824;2023-01-28T02:18:21;102880.38;;;6.69;53.26
48527;BME280;34317;51.660;5.824;2023-01-28T02:26:39;102879.47;;;6.64;53.17
48527;BME280;34317;51.660;5.824;2023-01-28T02:32:42;102866.31;;;6.64;53.11
48527;BME280;34317;51.660;5.824;2023-01-28T02:37:46;102872.47;;;6.66;52.94
48527;BME280;34317;51.660;5.824;2023-01-28T02:40:19;102874.22;;;6.67;53.35
48527;BME280;34317;51.660;5.824;2023-01-28T02:42:50;102873.38;;;6.71;53.52
48527;BME280;34317;51.660;5.824;2023-01-28T02:45:24;102868.13;;;6.74;53.28
48527;BME280;34317;51.660;5.824;2023-01-28T02:47:53;102869.88;;;6.75;53.29
48527;BME280;34317;51.660;5.824;2023-01-28T02:50:42;102873.38;;;6.74;52.98
48527;BME280;34317;51.660;5.824;2023-01-28T03:02:22;102873.34;;;6.65;52.80
48527;BME280;34317;51.660;5.824;2023-01-28T03:05:15;102876.84;;;6.64;53.13
48527;BME280;34317;51.660;5.824;2023-01-28T03:07:48;102871.56;;;6.64;52.71
48527;BME280;34317;51.660;5.824;2023-01-28T03:10:20;102874.22;;;6.66;53.01
48527;BME280;34317;51.660;5.824;2023-01-28T03:12:51;102880.34;;;6.66;52.68
48527;BME280;34317;51.660;5.824;2023-01-28T03:15:59;102876.84;;;6.64;52.79
48527;BME280;34317;51.660;5.824;2023-01-28T03:18:48;102880.38;;;6.63;52.84
48527;BME280;34317;51.660;5.824;2023-01-28T03:21:41;102881.22;;;6.60;52.54
48527;BME280;34317;51.660;5.824;2023-01-28T03:24:37;102875.94;;;6.59;52.53
48527;BME280;34317;51.660;5.824;2023-01-28T03:27:32;102878.56;;;6.59;53.02
48527;BME280;34317;51.660;5.824;2023-01-28T03:30:43;102871.56;;;6.58;53.21
48527;BME280;34317;51.660;5.824;2023-01-28T03:33:43;102875.94;;;6.59;53.00
48527;BME280;34317;51.660;5.824;2023-01-28T03:36:31;102882.97;;;6.58;52.96
48527;BME280;34317;51.660;5.824;2023-01-28T03:39:36;102886.47;;;6.56;53.35
48527;BME280;34317;51.660;5.824;2023-01-28T03:42:07;102889.09;;;6.56;53.36
48527;BME280;34317;51.660;5.824;2023-01-28T03:44:40;102882.94;;;6.57;53.18
48527;BME280;34317;51.660;5.824;2023-01-28T03:47:25;102885.59;;;6.57;53.30
48527;BME280;34317;51.660;5.824;2023-01-28T03:49:58;102880.31;;;6.54;52.88
48527;BME280;34317;51.660;5.824;2023-01-28T03:52:34;102878.53;;;6.53;52.96
48527;BME280;34317;51.660;5.824;2023-01-28T03:55:23;102881.16;;;6.50;53.01
48527;BME280;34317;51.660;5.824;2023-01-28T03:57:52;102876.78;;;6.49;53.16
48527;BME280;34317;51.660;5.824;2023-01-28T04:00:21;102882.03;;;6.49;52.78
48527;BME280;34317;51.660;5.824;2023-01-28T04:02:49;102894.31;;;6.47;52.80
48527;BME280;34317;51.660;5.824;2023-01-28T04:05:19;102894.28;;;6.43;52.57
48527;BME280;34317;51.660;5.824;2023-01-28T04:07:55;102896.03;;;6.41;52.54
48527;BME280;34317;51.660;5.824;2023-01-28T04:10:45;102910.06;;;6.42;52.29
48527;BME280;34317;51.660;5.824;2023-01-28T04:13:23;102909.19;;;6.40;52.21
48527;BME280;34317;51.660;5.824;2023-01-28T04:15:51;102906.53;;;6.38;52.08
48527;BME280;34317;51.660;5.824;2023-01-28T04:18:18;102911.81;;;6.38;51.88
48527;BME280;34317;51.660;5.824;2023-01-28T04:20:56;102916.19;;;6.38;52.29
48527;BME280;34317;51.660;5.824;2023-01-28T04:23:26;102909.16;;;6.38;52.02
48527;BME280;34317;51.660;5.824;2023-01-28T04:25:55;102904.81;;;6.40;52.27
48527;BME280;34317;51.660;5.824;2023-01-28T04:28:27;102901.31;;;6.41;52.31
48527;BME280;34317;51.660;5.824;2023-01-28T04:30:54;102912.72;;;6.43;52.15
48527;BME280;34317;51.660;5.824;2023-01-28T04:33:42;102908.34;;;6.46;51.98
48527;BME280;34317;51.660;5.824;2023-01-28T04:36:18;102903.06;;;6.46;52.06
48527;BME280;34317;51.660;5.824;2023-01-28T04:39:08;102903.06;;;6.46;51.99
48527;BME280;34317;51.660;5.824;2023-01-28T04:41:36;102897.81;;;6.46;52.08
48527;BME280;34317;51.660;5.824;2023-01-28T04:44:22;102892.56;;;6.42;52.14
48527;BME280;34317;51.660;5.824;2023-01-28T04:47:03;102901.31;;;6.41;51.93
48527;BME280;34317;51.660;5.824;2023-01-28T04:49:50;102899.56;;;6.40;51.72
48527;BME280;34317;51.660;5.824;2023-01-28T04:52:49;102911.81;;;6.38;52.02
48527;BME280;34317;51.660;5.824;2023-01-28T04:55:38;102910.91;;;6.36;52.08
48527;BME280;34317;51.660;5.824;2023-01-28T04:58:05;102918.81;;;6.36;52.13
48527;BME280;34317;51.660;5.824;2023-01-28T05:00:40;102911.81;;;6.35;52.00
48527;BME280;34317;51.660;5.824;2023-01-28T05:03:08;102917.06;;;6.35;52.10
48527;BME280;34317;51.660;5.824;2023-01-28T05:06:05;102914.41;;;6.34;52.29
48527;BME280;34317;51.660;5.824;2023-01-28T05:08:44;102912.66;;;6.33;52.27
48527;BME280;34317;51.660;5.824;2023-01-28T05:11:14;102913.56;;;6.33;52.06
48527;BME280;34317;51.660;5.824;2023-01-28T05:13:43;102906.50;;;6.32;52.18
48527;BME280;34317;51.660;5.824;2023-01-28T05:16:12;102913.56;;;6.33;52.41
48527;BME280;34317;51.660;5.824;2023-01-28T05:18:40;102916.19;;;6.33;52.29
48527;BME280;34317;51.660;5.824;2023-01-28T05:21:13;102919.66;;;6.32;52.34
48527;BME280;34317;51.660;5.824;2023-01-28T05:23:42;102915.25;;;6.28;52.10
48527;BME280;34317;51.660;5.824;2023-01-28T05:26:09;102922.25;;;6.24;52.18
48527;BME280;34317;51.660;5.824;2023-01-28T05:28:38;102911.72;;;6.23;52.16
48527;BME280;34317;51.660;5.824;2023-01-28T05:31:08;102911.69;;;6.21;52.56
48527;BME280;34317;51.660;5.824;2023-01-28T05:33:36;102911.69;;;6.21;52.69
48527;BME280;34317;51.660;5.824;2023-01-28T05:36:06;102896.81;;;6.22;52.46
48527;BME280;34317;51.660;5.824;2023-01-28T05:38:34;102901.19;;;6.23;52.60
48527;BME280;34317;51.660;5.824;2023-01-28T05:41:01;102899.44;;;6.22;52.20
48527;BME280;34317;51.660;5.824;2023-01-28T05:43:29;102897.66;;;6.21;52.17
48527;BME280;34317;51.660;5.824;2023-01-28T05:46:34;102905.56;;;6.18;52.02
48527;BME280;34317;51.660;5.824;2023-01-28T05:49:22;102911.69;;;6.17;52.35
48527;BME280;34317;51.660;5.824;2023-01-28T05:52:07;102913.44;;;6.15;51.95
48527;BME280;34317;51.660;5.824;2023-01-28T05:54:34;102913.44;;;6.15;52.35
48527;BME280;34317;51.660;5.824;2023-01-28T05:57:02;102916.91;;;6.14;51.92
48527;BME280;34317;51.660;5.824;2023-01-28T05:59:30;102920.44;;;6.13;52.26
48527;BME280;34317;51.660;5.824;2023-01-28T06:02:00;102916.91;;;6.14;52.04
48527;BME280;34317;51.660;5.824;2023-01-28T06:04:27;102922.16;;;6.14;52.06
48527;BME280;34317;51.660;5.824;2023-01-28T06:06:54;102915.16;;;6.13;52.11
48527;BME280;34317;51.660;5.824;2023-01-28T06:09:22;102919.53;;;6.11;51.90
48527;BME280;34317;51.660;5.824;2023-01-28T06:11:50;102925.66;;;6.10;51.89
48527;BME280;34317;51.660;5.824;2023-01-28T06:14:18;102923.88;;;6.06;51.48
48527;BME280;34317;51.660;5.824;2023-01-28T06:17:06;102929.09;;;6.02;51.64
48527;BME280;34317;51.660;5.824;2023-01-28T06:20:02;102928.19;;;5.99;51.84
48527;BME280;34317;51.660;5.824;2023-01-28T06:22:31;102925.59;;;5.97;51.88
48527;BME280;34317;51.660;5.824;2023-01-28T06:25:01;102923.81;;;5.96;51.55
48527;BME280;34317;51.660;5.824;2023-01-28T06:27:28;102922.06;;;5.95;51.73
48527;BME280;34317;51.660;5.824;2023-01-28T06:30:01;102934.25;;;5.93;51.51
48527;BME280;34317;51.660;5.824;2023-01-28T06:32:28;102923.75;;;5.90;51.28
48527;BME280;34317;51.660;5.824;2023-01-28T06:34:56;102927.22;;;5.86;51.08
48527;BME280;34317;51.660;5.824;2023-01-28T06:37:23;102934.19;;;5.85;51.56
48527;BME280;34317;51.660;5.824;2023-01-28T06:39:55;102934.22;;;5.84;51.35
48527;BME280;34317;51.660;5.824;2023-01-28T06:42:23;102934.19;;;5.82;51.56
48527;BME280;34317;51.660;5.824;2023-01-28T06:44:50;102938.53;;;5.82;51.68
48527;BME280;34317;51.660;5.824;2023-01-28T06:47:23;102930.66;;;5.82;51.21
48527;BME280;34317;51.660;5.824;2023-01-28T06:49:51;102927.13;;;5.80;51.18
48527;BME280;34317;51.660;5.824;2023-01-28T06:52:18;102934.19;;;5.81;51.45
48527;BME280;34317;51.660;5.824;2023-01-28T06:54:50;102944.66;;;5.78;51.44
48527;BME280;34317;51.660;5.824;2023-01-28T06:57:17;102938.53;;;5.77;51.77
48527;BME280;34317;51.660;5.824;2023-01-28T06:59:46;102937.63;;;5.74;51.47
48527;BME280;34317;51.660;5.824;2023-01-28T07:02:13;102941.09;;;5.70;51.54
48527;BME280;34317;51.660;5.824;2023-01-28T07:04:40;102939.31;;;5.65;51.59
48527;BME280;34317;51.660;5.824;2023-01-28T07:07:07;102942.78;;;5.61;51.51
48527;BME280;34317;51.660;5.824;2023-01-28T07:09:34;102946.22;;;5.57;51.46
48527;BME280;34317;51.660;5.824;2023-01-28T07:12:01;102948.84;;;5.54;51.19
48527;BME280;34317;51.660;5.824;2023-01-28T07:14:31;102947.94;;;5.52;51.73
48527;BME280;34317;51.660;5.824;2023-01-28T07:16:58;102955.81;;;5.52;51.79
48527;BME280;34317;51.660;5.824;2023-01-28T07:19:27;102947.94;;;5.52;51.61
48527;BME280;34317;51.660;5.824;2023-01-28T07:21:54;102961.97;;;5.54;51.98
48527;BME280;34317;51.660;5.824;2023-01-28T07:24:24;102958.47;;;5.55;51.81
48527;BME280;34317;51.660;5.824;2023-01-28T07:26:51;102965.50;;;5.56;51.59
48527;BME280;34317;51.660;5.824;2023-01-28T07:29:18;102977.75;;;5.57;51.32
48527;BME280;34317;51.660;5.824;2023-01-28T07:31:45;102983.00;;;5.57;51.73
48527;BME280;34317;51.660;5.824;2023-01-28T07:34:12;102983.00;;;5.57;51.76
48527;BME280;34317;51.660;5.824;2023-01-28T07:36:40;102979.50;;;5.55;51.56
48527;BME280;34317;51.660;5.824;2023-01-28T07:39:07;102991.72;;;5.53;51.41
48527;BME280;34317;51.660;5.824;2023-01-28T07:41:34;102992.63;;;5.55;51.47
48527;BME280;34317;51.660;5.824;2023-01-28T07:44:05;102989.97;;;5.54;51.54
48527;BME280;34317;51.660;5.824;2023-01-28T07:46:33;102986.53;;;5.56;51.63
48527;BME280;34317;51.660;5.824;2023-01-28T07:49:00;102988.28;;;5.57;51.73
48527;BME280;34317;51.660;5.824;2023-01-28T07:51:27;102986.53;;;5.56;51.51
48527;BME280;34317;51.660;5.824;2023-01-28T07:53:54;102988.28;;;5.57;51.71
48527;BME280;34317;51.660;5.824;2023-01-28T07:56:21;102992.69;;;5.58;51.86
48527;BME280;34317;51.660;5.824;2023-01-28T07:58:49;103002.31;;;5.59;52.05
48527;BME280;34317;51.660;5.824;2023-01-28T08:01:16;102995.34;;;5.61;51.65
48527;BME280;34317;51.660;5.824;2023-01-28T08:03:45;102998.81;;;5.60;51.47
48527;BME280;34317;51.660;5.824;2023-01-28T08:06:12;103006.69;;;5.59;51.80
48527;BME280;34317;51.660;5.824;2023-01-28T08:08:39;103004.03;;;5.57;51.74
48527;BME280;34317;51.660;5.824;2023-01-28T08:11:09;102995.25;;;5.55;51.58
48527;BME280;34317;51.660;5.824;2023-01-28T08:13:37;102986.53;;;5.56;51.59
48527;BME280;34317;51.660;5.824;2023-01-28T08:16:05;102996.19;;;5.60;51.53
48527;BME280;34317;51.660;5.824;2023-01-28T08:18:32;103007.59;;;5.62;51.54
48527;BME280;34317;51.660;5.824;2023-01-28T08:20:59;103012.00;;;5.62;51.50
48527;BME280;34317;51.660;5.824;2023-01-28T08:23:27;103017.25;;;5.62;51.32
48527;BME280;34317;51.660;5.824;2023-01-28T08:25:57;103023.38;;;5.62;51.81
48527;BME280;34317;51.660;5.824;2023-01-28T08:28:25;103031.31;;;5.65;51.85
48527;BME280;34317;51.660;5.824;2023-01-28T08:30:52;103030.44;;;5.66;51.81
48527;BME280;34317;51.660;5.824;2023-01-28T08:33:20;103030.44;;;5.66;51.78
48527;BME280;34317;51.660;5.824;2023-01-28T08:35:47;103036.59;;;5.67;51.57
48527;BME280;34317;51.660;5.824;2023-01-28T08:38:14;103033.94;;;5.69;51.93
48527;BME280;34317;51.660;5.824;2023-01-28T08:40:46;103043.63;;;5.71;51.76
48527;BME280;34317;51.660;5.824;2023-01-28T08:43:16;103046.28;;;5.73;51.96
48527;BME280;34317;51.660;5.824;2023-01-28T08:45:43;103039.28;;;5.75;51.53
48527;BME280;34317;51.660;5.824;2023-01-28T08:48:14;103035.78;;;5.76;51.54
48527;BME280;34317;51.660;5.824;2023-01-28T08:50:42;103042.81;;;5.77;52.01
48527;BME280;34317;51.660;5.824;2023-01-28T08:53:12;103046.34;;;5.82;51.71
48527;BME280;34317;51.660;5.824;2023-01-28T08:55:40;103041.09;;;5.82;51.76
48527;BME280;34317;51.660;5.824;2023-01-28T08:58:12;103044.66;;;5.84;51.70
48527;BME280;34317;51.660;5.824;2023-01-28T09:00:40;103049.06;;;5.87;51.94
48527;BME280;34317;51.660;5.824;2023-01-28T09:03:08;103056.97;;;5.88;51.63
48527;BME280;34317;51.660;5.824;2023-01-28T09:05:35;103056.97;;;5.88;51.85
48527;BME280;34317;51.660;5.824;2023-01-28T09:08:05;103063.97;;;5.89;51.55
48527;BME280;34317;51.660;5.824;2023-01-28T09:10:34;103059.63;;;5.90;51.42
48527;BME280;34317;51.660;5.824;2023-01-28T09:13:11;103067.50;;;5.91;51.43
48527;BME280;34317;51.660;5.824;2023-01-28T09:15:40;103078.03;;;5.93;51.16
48527;BME280;34317;51.660;5.824;2023-01-28T09:18:10;103071.00;;;5.90;51.28
48527;BME280;34317;51.660;5.824;2023-01-28T09:20:37;103069.28;;;5.92;51.57
48527;BME280;34317;51.660;5.824;2023-01-28T09:23:05;103075.41;;;5.93;51.62
48527;BME280;34317;51.660;5.824;2023-01-28T09:25:33;103078.00;;;5.91;51.12
48527;BME280;34317;51.660;5.824;2023-01-28T09:28:02;103078.91;;;5.90;51.33
48527;BME280;34317;51.660;5.824;2023-01-28T09:30:29;103071.00;;;5.90;51.72
48527;BME280;34317;51.660;5.824;2023-01-28T09:32:57;103063.13;;;5.90;51.66
48527;BME280;34317;51.660;5.824;2023-01-28T09:35:24;103078.00;;;5.91;51.42
48527;BME280;34317;51.660;5.824;2023-01-28T09:37:55;103076.28;;;5.93;51.24
48527;BME280;34317;51.660;5.824;2023-01-28T09:40:33;103083.31;;;5.94;51.38
48527;BME280;34317;51.660;5.824;2023-01-28T09:46:02;103083.41;;;5.97;51.59
48527;BME280;34317;51.660;5.824;2023-01-28T09:48:53;103085.13;;;5.98;51.67
48527;BME280;34317;51.660;5.824;2023-01-28T09:51:42;103083.41;;;6.00;51.77
48527;BME280;34317;51.660;5.824;2023-01-28T09:57:13;103100.97;;;6.01;51.73
48527;BME280;34317;51.660;5.824;2023-01-28T09:59:43;103100.97;;;6.04;51.69
48527;BME280;34317;51.660;5.824;2023-01-28T10:02:25;103092.22;;;6.06;51.85
48527;BME280;34317;51.660;5.824;2023-01-28T10:07:33;103106.25;;;6.04;51.76
48527;BME280;34317;51.660;5.824;2023-01-28T10:10:24;103108.84;;;6.01;51.36
48527;BME280;34317;51.660;5.824;2023-01-28T10:18:46;103108.81;;;5.98;51.55
48527;BME280;34317;51.660;5.824;2023-01-28T10:26:39;103120.22;;;5.97;51.66
48527;BME280;34317;51.660;5.824;2023-01-28T10:29:22;103115.81;;;5.96;51.69
48527;BME280;34317;51.660;5.824;2023-01-28T10:34:22;103117.50;;;5.93;51.55
48527;BME280;34317;51.660;5.824;2023-01-28T10:36:49;103102.59;;;5.93;51.41
48527;BME280;34317;51.660;5.824;2023-01-28T10:39:20;103106.09;;;5.92;51.26
48527;BME280;34317;51.660;5.824;2023-01-28T10:41:48;103106.09;;;5.92;51.27
48527;BME280;34317;51.660;5.824;2023-01-28T10:44:34;103104.31;;;5.91;51.32
48527;BME280;34317;51.660;5.824;2023-01-28T10:47:10;103097.34;;;5.92;51.48
48527;BME280;34317;51.660;5.824;2023-01-28T10:49:46;103106.09;;;5.92;51.49
48527;BME280;34317;51.660;5.824;2023-01-28T10:52:15;103104.31;;;5.91;51.38
48527;BME280;34317;51.660;5.824;2023-01-28T10:54:43;103109.56;;;5.91;51.41
48527;BME280;34317;51.660;5.824;2023-01-28T10:57:12;103099.06;;;5.91;51.45
48527;BME280;34317;51.660;5.824;2023-01-28T10:59:41;103099.06;;;5.91;51.34
48527;BME280;34317;51.660;5.824;2023-01-28T11:02:35;103090.28;;;5.89;51.42
48527;BME280;34317;51.660;5.824;2023-01-28T11:07:37;103100.78;;;5.89;51.26
48527;BME280;34317;51.660;5.824;2023-01-28T11:10:23;103099.03;;;5.88;51.47
48527;BME280;34317;51.660;5.824;2023-01-28T11:12:56;103082.38;;;5.89;51.19
48527;BME280;34317;51.660;5.824;2023-01-28T11:15:23;103078.00;;;5.91;51.32
48527;BME280;34317;51.660;5.824;2023-01-28T11:18:21;103081.53;;;5.93;51.51
48527;BME280;34317;51.660;5.824;2023-01-28T11:20:57;103064.97;;;5.99;51.23
48527;BME280;34317;51.660;5.824;2023-01-28T11:23:36;103071.16;;;6.02;51.65
48527;BME280;34317;51.660;5.824;2023-01-28T11:26:16;103078.22;;;6.07;51.16
48527;BME280;34317;51.660;5.824;2023-01-28T11:28:44;103058.06;;;6.10;51.30
48527;BME280;34317;51.660;5.824;2023-01-28T11:31:14;103055.50;;;6.15;51.46
48527;BME280;34317;51.660;5.824;2023-01-28T11:33:48;103045.03;;;6.21;51.54
48527;BME280;34317;51.660;5.824;2023-01-28T11:36:22;103043.31;;;6.26;51.26
48527;BME280;34317;51.660;5.824;2023-01-28T11:41:35;103043.41;;;6.35;50.95
48527;BME280;34317;51.660;5.824;2023-01-28T11:44:24;103048.66;;;6.35;50.73
48527;BME280;34317;51.660;5.824;2023-01-28T11:47:02;103044.25;;;6.36;51.03
48527;BME280;34317;51.660;5.824;2023-01-28T11:52:47;103025.91;;;6.43;51.29
48527;BME280;34317;51.660;5.824;2023-01-28T11:55:41;103010.19;;;6.53;51.46
48527;BME280;34317;51.660;5.824;2023-01-28T12:01:12;102986.56;;;6.65;51.46
48527;BME280;34317;51.660;5.824;2023-01-28T12:03:47;102970.81;;;6.71;51.10
48527;BME280;34317;51.660;5.824;2023-01-28T12:09:28;102962.97;;;6.87;51.18
48527;BME280;34317;51.660;5.824;2023-01-28T12:17:57;102952.50;;;7.02;50.94
48527;BME280;34317;51.660;5.824;2023-01-28T12:20:51;102963.06;;;7.11;51.20
48527;BME280;34317;51.660;5.824;2023-01-28T12:39:59;102985.09;;;7.27;50.56
48527;BME280;34317;51.660;5.824;2023-01-28T12:42:44;102991.25;;;7.28;50.72
48527;BME280;34317;51.660;5.824;2023-01-28T12:45:17;102991.25;;;7.28;50.59
48527;BME280;34317;51.660;5.824;2023-01-28T12:47:54;102994.75;;;7.28;50.71
48527;BME280;34317;51.660;5.824;2023-01-28T12:50:37;102998.28;;;7.32;50.69
48527;BME280;34317;51.660;5.824;2023-01-28T12:53:22;102994.78;;;7.36;50.49
48527;BME280;34317;51.660;5.824;2023-01-28T12:55:59;102998.31;;;7.39;50.22
48527;BME280;34317;51.660;5.824;2023-01-28T12:58:38;102991.25;;;7.40;50.42
48527;BME280;34317;51.660;5.824;2023-01-28T13:01:09;102991.28;;;7.43;50.47
48527;BME280;34317;51.660;5.824;2023-01-28T13:04:02;102998.34;;;7.44;50.38
48527;BME280;34317;51.660;5.824;2023-01-28T13:06:53;102994.81;;;7.45;50.16
48527;BME280;34317;51.660;5.824;2023-01-28T13:09:24;102986.91;;;7.47;50.18
48527;BME280;34317;51.660;5.824;2023-01-28T13:11:56;103003.59;;;7.53;50.30
48527;BME280;34317;51.660;5.824;2023-01-28T13:14:29;102986.03;;;7.58;50.30
48527;BME280;34317;51.660;5.824;2023-01-28T13:17:24;102993.06;;;7.63;50.26
48527;BME280;34317;51.660;5.824;2023-01-28T13:19:52;102985.16;;;7.63;50.53
48527;BME280;34317;51.660;5.824;2023-01-28T13:22:34;102979.91;;;7.66;50.34
48527;BME280;34317;51.660;5.824;2023-01-28T13:25:21;102979.91;;;7.72;50.26
48527;BME280;34317;51.660;5.824;2023-01-28T13:28:04;102987.84;;;7.75;50.45
48527;BME280;34317;51.660;5.824;2023-01-28T13:30:34;102977.31;;;7.78;50.32
48527;BME280;34317;51.660;5.824;2023-01-28T13:33:34;102982.56;;;7.81;50.59
48527;BME280;34317;51.660;5.824;2023-01-28T13:36:23;102973.75;;;7.85;50.33
48527;BME280;34317;51.660;5.824;2023-01-28T13:39:04;102975.56;;;7.89;50.17
48527;BME280;34317;51.660;5.824;2023-01-28T13:41:40;102968.50;;;7.91;50.20
48527;BME280;34317;51.660;5.824;2023-01-28T13:46:44;102950.91;;;7.96;50.31
48527;BME280;34317;51.660;5.824;2023-01-28T13:49:15;102946.50;;;7.98;50.01
48527;BME280;34317;51.660;5.824;2023-01-28T13:51:55;102945.63;;;7.99;50.07
48527;BME280;34317;51.660;5.824;2023-01-28T13:54:25;102929.81;;;8.03;49.86
48527;BME280;34317;51.660;5.824;2023-01-28T14:03:23;102891.06;;;8.08;49.91
48527;BME280;34317;51.660;5.824;2023-01-28T14:17:19;102921.00;;;8.04;49.86
48527;BME280;34317;51.660;5.824;2023-01-28T14:19:51;102935.06;;;7.99;50.10
48527;BME280;34317;51.660;5.824;2023-01-28T14:22:20;102938.59;;;8.02;50.28
48527;BME280;34317;51.660;5.824;2023-01-28T14:24:47;102940.34;;;8.06;50.23
48527;BME280;34317;51.660;5.824;2023-01-28T14:27:24;102939.47;;;8.10;49.99
48527;BME280;34317;51.660;5.824;2023-01-28T14:32:25;102947.38;;;8.19;50.12
48527;BME280;34317;51.660;5.824;2023-01-28T14:34:56;102942.09;;;8.22;49.86
48527;BME280;34317;51.660;5.824;2023-01-28T14:37:28;102950.88;;;8.21;49.66
48527;BME280;34317;51.660;5.824;2023-01-28T14:40:06;102952.66;;;8.22;49.93
48527;BME280;34317;51.660;5.824;2023-01-28T14:42:52;102953.53;;;8.24;49.83
48527;BME280;34317;51.660;5.824;2023-01-28T14:56:18;102958.81;;;8.23;49.85
48527;BME280;34317;51.660;5.824;2023-01-28T14:58:52;102957.06;;;8.20;49.61
48527;BME280;34317;51.660;5.824;2023-01-28T15:01:26;102963.22;;;8.16;49.54
48527;BME280;34317;51.660;5.824;2023-01-28T15:03:53;102959.69;;;8.11;49.79
48527;BME280;34317;51.660;5.824;2023-01-28T15:06:23;102950.91;;;8.09;49.50
48527;BME280;34317;51.660;5.824;2023-01-28T15:08:52;102955.31;;;8.08;49.90
48527;BME280;34317;51.660;5.824;2023-01-28T15:11:22;102943.84;;;8.08;49.54
48527;BME280;34317;51.660;5.824;2023-01-28T15:13:55;102943.84;;;8.08;49.75
48527;BME280;34317;51.660;5.824;2023-01-28T15:16:25;102952.69;;;8.07;49.84
48527;BME280;34317;51.660;5.824;2023-01-28T15:18:59;102949.16;;;8.05;49.38
48527;BME280;34317;51.660;5.824;2023-01-28T15:21:28;102951.78;;;8.03;49.72
48527;BME280;34317;51.660;5.824;2023-01-28T15:23:57;102949.16;;;8.02;49.65
48527;BME280;34317;51.660;5.824;2023-01-28T15:26:28;102955.31;;;7.99;49.27